sensor_id;sensor_type;location;lat;lon;timestamp;P1;durP1;ratioP1;P2;durP2;ratioP2
12681;SDS011;6405;59.208;18.216;2022-12-31T00:00:28;12.60;;;3.23;;
12681;SDS011;6405;59.208;18.216;2022-12-31T00:02:56;13.73;;;5.77;;
12681;SDS011;6405;59.208;18.216;2022-12-31T00:05:24;20.07;;;4.97;;
12681;SDS011;6405;59.208;18.216;2022-12-31T00:07:51;15.13;;;5.07;;
12681;SDS011;6405;59.208;18.216;2022-12-31T00:10:19;18.40;;;4.87;;
12681;SDS011;6405;59.208;18.216;2022-12-31T00:12:45;14.50;;;5.70;;
12681;SDS011;6405;59.208;18.216;2022-12-31T00:15:12;21.63;;;5.97;;
12681;SDS011;6405;59.208;18.216;2022-12-31T00:17:39;23.10;;;4.43;;
12681;SDS011;6405;59.208;18.216;2022-12-31T00:20:07;16.10;;;5.33;;
12681;SDS011;6405;59.208;18.216;2022-12-31T00:22:34;13.33;;;4.93;;
12681;SDS011;6405;59.208;18.216;2022-12-31T00:25:02;14.10;;;4.63;;
12681;SDS011;6405;59.208;18.216;2022-12-31T00:27:30;13.00;;;5.67;;
12681;SDS011;6405;59.208;18.216;2022-12-31T00:29:59;15.23;;;5.47;;
12681;SDS011;6405;59.208;18.216;2022-12-31T00:32:26;18.27;;;5.37;;
12681;SDS011;6405;59.208;18.216;2022-12-31T00:34:53;13.03;;;4.83;;
12681;SDS011;6405;59.208;18.216;2022-12-31T00:37:19;15.23;;;5.40;;
12681;SDS011;6405;59.208;18.216;2022-12-31T00:39:46;19.83;;;5.67;;
12681;SDS011;6405;59.208;18.216;2022-12-31T00:42:13;16.40;;;5.33;;
12681;SDS011;6405;59.208;18.216;2022-12-31T00:44:41;14.77;;;5.50;;
12681;SDS011;6405;59.208;18.216;2022-12-31T00:47:09;15.20;;;4.93;;
12681;SDS011;6405;59.208;18.216;2022-12-31T00:49:35;14.93;;;4.77;;
12681;SDS011;6405;59.208;18.216;2022-12-31T00:52:01;19.00;;;5.43;;
12681;SDS011;6405;59.208;18.216;2022-12-31T00:54:28;15.83;;;4.43;;
12681;SDS011;6405;59.208;18.216;2022-12-31T00:56:56;14.53;;;5.77;;
12681;SDS011;6405;59.208;18.216;2022-12-31T00:59:24;14.83;;;5.90;;
12681;SDS011;6405;59.208;18.216;2022-12-31T01:01:50;13.87;;;5.03;;
12681;SDS011;6405;59.208;18.216;2022-12-31T01:04:19;8.77;;;3.87;;
12681;SDS011;6405;59.208;18.216;2022-12-31T01:06:46;16.03;;;5.27;;
12681;SDS011;6405;59.208;18.216;2022-12-31T01:09:14;16.87;;;5.30;;
12681;SDS011;6405;59.208;18.216;2022-12-31T01:11:41;13.20;;;4.90;;
12681;SDS011;6405;59.208;18.216;2022-12-31T01:14:09;15.47;;;4.77;;
12681;SDS011;6405;59.208;18.216;2022-12-31T01:16:41;12.40;;;4.87;;
12681;SDS011;6405;59.208;18.216;2022-12-31T01:19:10;10.60;;;4.17;;
12681;SDS011;6405;59.208;18.216;2022-12-31T01:21:40;13.83;;;4.73;;
12681;SDS011;6405;59.208;18.216;2022-12-31T01:24:10;12.87;;;4.57;;
12681;SDS011;6405;59.208;18.216;2022-12-31T01:26:38;14.33;;;5.53;;
12681;SDS011;6405;59.208;18.216;2022-12-31T01:29:06;16.53;;;6.07;;
12681;SDS011;6405;59.208;18.216;2022-12-31T01:31:35;15.57;;;4.70;;
12681;SDS011;6405;59.208;18.216;2022-12-31T01:34:03;18.43;;;5.07;;
12681;SDS011;6405;59.208;18.216;2022-12-31T01:36:32;16.07;;;5.17;;
12681;SDS011;6405;59.208;18.216;2022-12-31T01:39:00;8.53;;;3.47;;
12681;SDS011;6405;59.208;18.216;2022-12-31T01:41:30;14.47;;;4.37;;
12681;SDS011;6405;59.208;18.216;2022-12-31T01:46:40;14.80;;;4.40;;
12681;SDS011;6405;59.208;18.216;2022-12-31T01:49:18;15.00;;;3.63;;
12681;SDS011;6405;59.208;18.216;2022-12-31T01:51:47;6.80;;;2.77;;
12681;SDS011;6405;59.208;18.216;2022-12-31T01:54:27;15.90;;;5.40;;
12681;SDS011;6405;59.208;18.216;2022-12-31T01:56:57;13.70;;;4.43;;
12681;SDS011;6405;59.208;18.216;2022-12-31T01:59:26;10.67;;;3.40;;
12681;SDS011;6405;59.208;18.216;2022-12-31T02:01:58;6.73;;;3.43;;
12681;SDS011;6405;59.208;18.216;2022-12-31T02:04:26;9.80;;;3.23;;
12681;SDS011;6405;59.208;18.216;2022-12-31T02:07:00;9.33;;;3.50;;
12681;SDS011;6405;59.208;18.216;2022-12-31T02:09:29;10.00;;;4.33;;
12681;SDS011;6405;59.208;18.216;2022-12-31T02:11:58;15.70;;;4.13;;
12681;SDS011;6405;59.208;18.216;2022-12-31T02:14:27;10.43;;;3.17;;
12681;SDS011;6405;59.208;18.216;2022-12-31T02:19:50;9.20;;;3.40;;
12681;SDS011;6405;59.208;18.216;2022-12-31T02:30:21;9.27;;;3.20;;
12681;SDS011;6405;59.208;18.216;2022-12-31T02:32:56;11.50;;;3.37;;
12681;SDS011;6405;59.208;18.216;2022-12-31T02:35:27;12.50;;;3.90;;
12681;SDS011;6405;59.208;18.216;2022-12-31T02:38:02;16.20;;;4.93;;
12681;SDS011;6405;59.208;18.216;2022-12-31T02:40:33;10.13;;;3.73;;
12681;SDS011;6405;59.208;18.216;2022-12-31T02:43:04;14.37;;;4.00;;
12681;SDS011;6405;59.208;18.216;2022-12-31T02:45:39;12.07;;;4.47;;
12681;SDS011;6405;59.208;18.216;2022-12-31T02:56:20;16.17;;;4.37;;
12681;SDS011;6405;59.208;18.216;2022-12-31T03:01:51;12.87;;;5.20;;
12681;SDS011;6405;59.208;18.216;2022-12-31T03:04:42;15.37;;;4.27;;
12681;SDS011;6405;59.208;18.216;2022-12-31T03:07:28;20.00;;;5.33;;
12681;SDS011;6405;59.208;18.216;2022-12-31T03:09:58;14.47;;;4.43;;
12681;SDS011;6405;59.208;18.216;2022-12-31T03:12:28;12.13;;;4.27;;
12681;SDS011;6405;59.208;18.216;2022-12-31T03:15:15;13.60;;;4.63;;
12681;SDS011;6405;59.208;18.216;2022-12-31T03:20:24;15.67;;;4.73;;
12681;SDS011;6405;59.208;18.216;2022-12-31T03:23:22;8.57;;;3.90;;
12681;SDS011;6405;59.208;18.216;2022-12-31T03:25:59;13.90;;;4.57;;
12681;SDS011;6405;59.208;18.216;2022-12-31T03:28:28;9.13;;;3.90;;
12681;SDS011;6405;59.208;18.216;2022-12-31T03:30:57;12.07;;;4.50;;
12681;SDS011;6405;59.208;18.216;2022-12-31T03:33:25;12.60;;;4.53;;
12681;SDS011;6405;59.208;18.216;2022-12-31T03:35:56;12.37;;;4.43;;
12681;SDS011;6405;59.208;18.216;2022-12-31T03:38:24;9.53;;;3.70;;
12681;SDS011;6405;59.208;18.216;2022-12-31T03:40:51;8.33;;;3.53;;
12681;SDS011;6405;59.208;18.216;2022-12-31T03:43:18;14.57;;;4.90;;
12681;SDS011;6405;59.208;18.216;2022-12-31T03:45:47;11.27;;;4.13;;
12681;SDS011;6405;59.208;18.216;2022-12-31T03:48:17;13.23;;;4.60;;
12681;SDS011;6405;59.208;18.216;2022-12-31T03:50:49;12.10;;;4.10;;
12681;SDS011;6405;59.208;18.216;2022-12-31T03:53:17;16.23;;;4.93;;
12681;SDS011;6405;59.208;18.216;2022-12-31T03:55:44;12.10;;;4.47;;
12681;SDS011;6405;59.208;18.216;2022-12-31T03:58:15;6.67;;;3.73;;
12681;SDS011;6405;59.208;18.216;2022-12-31T04:00:42;13.90;;;3.90;;
12681;SDS011;6405;59.208;18.216;2022-12-31T04:03:18;15.97;;;4.40;;
12681;SDS011;6405;59.208;18.216;2022-12-31T04:05:50;9.10;;;4.10;;
12681;SDS011;6405;59.208;18.216;2022-12-31T04:08:20;15.47;;;3.87;;
12681;SDS011;6405;59.208;18.216;2022-12-31T04:10:47;10.53;;;4.23;;
12681;SDS011;6405;59.208;18.216;2022-12-31T04:13:13;11.47;;;4.50;;
12681;SDS011;6405;59.208;18.216;2022-12-31T04:15:39;12.23;;;4.30;;
12681;SDS011;6405;59.208;18.216;2022-12-31T04:18:05;10.07;;;4.40;;
12681;SDS011;6405;59.208;18.216;2022-12-31T04:20:32;12.27;;;3.63;;
12681;SDS011;6405;59.208;18.216;2022-12-31T04:22:58;11.80;;;3.17;;
12681;SDS011;6405;59.208;18.216;2022-12-31T04:25:24;9.33;;;4.47;;
12681;SDS011;6405;59.208;18.216;2022-12-31T04:27:52;10.43;;;4.70;;
12681;SDS011;6405;59.208;18.216;2022-12-31T04:30:20;13.77;;;5.00;;
12681;SDS011;6405;59.208;18.216;2022-12-31T04:32:46;10.40;;;3.93;;
12681;SDS011;6405;59.208;18.216;2022-12-31T04:35:13;10.83;;;4.53;;
12681;SDS011;6405;59.208;18.216;2022-12-31T04:37:41;14.23;;;4.30;;
12681;SDS011;6405;59.208;18.216;2022-12-31T04:40:08;11.43;;;4.23;;
12681;SDS011;6405;59.208;18.216;2022-12-31T04:42:35;11.93;;;5.10;;
12681;SDS011;6405;59.208;18.216;2022-12-31T04:45:03;8.37;;;3.90;;
12681;SDS011;6405;59.208;18.216;2022-12-31T04:47:32;11.63;;;3.97;;
12681;SDS011;6405;59.208;18.216;2022-12-31T04:49:59;10.13;;;4.00;;
12681;SDS011;6405;59.208;18.216;2022-12-31T04:52:25;8.73;;;3.23;;
12681;SDS011;6405;59.208;18.216;2022-12-31T04:54:52;12.40;;;4.83;;
12681;SDS011;6405;59.208;18.216;2022-12-31T04:57:21;8.13;;;4.03;;
12681;SDS011;6405;59.208;18.216;2022-12-31T04:59:48;10.13;;;4.47;;
12681;SDS011;6405;59.208;18.216;2022-12-31T05:02:15;8.27;;;3.37;;
12681;SDS011;6405;59.208;18.216;2022-12-31T05:04:42;6.90;;;3.53;;
12681;SDS011;6405;59.208;18.216;2022-12-31T05:07:09;6.07;;;2.93;;
12681;SDS011;6405;59.208;18.216;2022-12-31T05:09:36;9.70;;;3.60;;
12681;SDS011;6405;59.208;18.216;2022-12-31T05:12:03;8.33;;;3.53;;
12681;SDS011;6405;59.208;18.216;2022-12-31T05:14:30;10.07;;;3.77;;
12681;SDS011;6405;59.208;18.216;2022-12-31T05:16:56;7.27;;;3.30;;
12681;SDS011;6405;59.208;18.216;2022-12-31T05:19:24;8.17;;;3.40;;
12681;SDS011;6405;59.208;18.216;2022-12-31T05:21:51;8.43;;;3.60;;
12681;SDS011;6405;59.208;18.216;2022-12-31T05:24:36;6.10;;;2.70;;
12681;SDS011;6405;59.208;18.216;2022-12-31T05:27:04;7.63;;;3.50;;
12681;SDS011;6405;59.208;18.216;2022-12-31T05:29:33;8.33;;;3.37;;
12681;SDS011;6405;59.208;18.216;2022-12-31T05:31:59;4.20;;;2.30;;
12681;SDS011;6405;59.208;18.216;2022-12-31T05:34:28;4.23;;;2.47;;
12681;SDS011;6405;59.208;18.216;2022-12-31T05:36:53;8.10;;;2.90;;
12681;SDS011;6405;59.208;18.216;2022-12-31T05:39:22;7.03;;;3.00;;
12681;SDS011;6405;59.208;18.216;2022-12-31T05:41:48;7.03;;;3.03;;
12681;SDS011;6405;59.208;18.216;2022-12-31T05:44:14;10.80;;;3.07;;
12681;SDS011;6405;59.208;18.216;2022-12-31T05:46:40;8.20;;;2.70;;
12681;SDS011;6405;59.208;18.216;2022-12-31T05:49:06;6.30;;;2.50;;
12681;SDS011;6405;59.208;18.216;2022-12-31T05:51:34;8.80;;;2.90;;
12681;SDS011;6405;59.208;18.216;2022-12-31T05:54:02;8.03;;;2.80;;
12681;SDS011;6405;59.208;18.216;2022-12-31T05:56:29;9.63;;;3.33;;
12681;SDS011;6405;59.208;18.216;2022-12-31T05:58:56;8.53;;;2.80;;
12681;SDS011;6405;59.208;18.216;2022-12-31T06:01:22;7.40;;;2.77;;
12681;SDS011;6405;59.208;18.216;2022-12-31T06:03:48;8.53;;;2.80;;
12681;SDS011;6405;59.208;18.216;2022-12-31T06:06:16;10.50;;;3.13;;
12681;SDS011;6405;59.208;18.216;2022-12-31T06:08:43;7.47;;;2.60;;
12681;SDS011;6405;59.208;18.216;2022-12-31T06:11:10;7.17;;;2.73;;
12681;SDS011;6405;59.208;18.216;2022-12-31T06:13:36;9.37;;;2.63;;
12681;SDS011;6405;59.208;18.216;2022-12-31T06:16:07;6.97;;;3.23;;
12681;SDS011;6405;59.208;18.216;2022-12-31T06:18:35;7.57;;;2.40;;
12681;SDS011;6405;59.208;18.216;2022-12-31T06:21:03;6.03;;;2.63;;
12681;SDS011;6405;59.208;18.216;2022-12-31T06:23:30;4.20;;;2.20;;
12681;SDS011;6405;59.208;18.216;2022-12-31T06:26:04;5.53;;;2.50;;
12681;SDS011;6405;59.208;18.216;2022-12-31T06:28:31;5.07;;;2.37;;
12681;SDS011;6405;59.208;18.216;2022-12-31T06:30:59;7.40;;;2.60;;
12681;SDS011;6405;59.208;18.216;2022-12-31T06:33:28;5.27;;;2.10;;
12681;SDS011;6405;59.208;18.216;2022-12-31T06:35:57;5.57;;;2.00;;
12681;SDS011;6405;59.208;18.216;2022-12-31T06:38:24;4.27;;;2.30;;
12681;SDS011;6405;59.208;18.216;2022-12-31T06:40:52;7.30;;;2.33;;
12681;SDS011;6405;59.208;18.216;2022-12-31T06:43:20;7.63;;;2.07;;
12681;SDS011;6405;59.208;18.216;2022-12-31T06:45:48;7.10;;;2.10;;
12681;SDS011;6405;59.208;18.216;2022-12-31T06:48:14;3.93;;;1.80;;
12681;SDS011;6405;59.208;18.216;2022-12-31T06:50:41;5.53;;;1.97;;
12681;SDS011;6405;59.208;18.216;2022-12-31T06:53:09;4.70;;;2.00;;
12681;SDS011;6405;59.208;18.216;2022-12-31T06:55:36;7.13;;;1.97;;
12681;SDS011;6405;59.208;18.216;2022-12-31T06:58:03;7.33;;;1.97;;
12681;SDS011;6405;59.208;18.216;2022-12-31T07:00:29;4.83;;;2.50;;
12681;SDS011;6405;59.208;18.216;2022-12-31T07:03:16;8.03;;;2.30;;
12681;SDS011;6405;59.208;18.216;2022-12-31T07:05:55;8.57;;;2.60;;
12681;SDS011;6405;59.208;18.216;2022-12-31T07:18:53;5.33;;;2.17;;
12681;SDS011;6405;59.208;18.216;2022-12-31T07:21:31;5.83;;;1.70;;
12681;SDS011;6405;59.208;18.216;2022-12-31T07:24:00;6.20;;;2.07;;
12681;SDS011;6405;59.208;18.216;2022-12-31T07:29:24;6.80;;;2.10;;
12681;SDS011;6405;59.208;18.216;2022-12-31T07:32:35;4.23;;;1.70;;
12681;SDS011;6405;59.208;18.216;2022-12-31T07:43:25;8.17;;;2.30;;
12681;SDS011;6405;59.208;18.216;2022-12-31T07:48:48;7.77;;;2.00;;
12681;SDS011;6405;59.208;18.216;2022-12-31T07:51:15;5.17;;;2.00;;
12681;SDS011;6405;59.208;18.216;2022-12-31T07:53:42;4.30;;;1.73;;
12681;SDS011;6405;59.208;18.216;2022-12-31T07:56:09;5.20;;;1.90;;
12681;SDS011;6405;59.208;18.216;2022-12-31T08:01:07;7.13;;;2.17;;
12681;SDS011;6405;59.208;18.216;2022-12-31T08:11:47;9.03;;;1.70;;
12681;SDS011;6405;59.208;18.216;2022-12-31T08:14:25;11.87;;;2.20;;
12681;SDS011;6405;59.208;18.216;2022-12-31T08:16:52;5.10;;;1.77;;
12681;SDS011;6405;59.208;18.216;2022-12-31T08:19:27;10.53;;;2.33;;
12681;SDS011;6405;59.208;18.216;2022-12-31T08:25:03;9.00;;;2.10;;
12681;SDS011;6405;59.208;18.216;2022-12-31T08:31:03;9.97;;;2.33;;
12681;SDS011;6405;59.208;18.216;2022-12-31T08:44:05;5.83;;;1.50;;
12681;SDS011;6405;59.208;18.216;2022-12-31T08:46:41;7.73;;;2.27;;
12681;SDS011;6405;59.208;18.216;2022-12-31T08:49:14;11.00;;;2.23;;
12681;SDS011;6405;59.208;18.216;2022-12-31T08:51:41;10.43;;;2.00;;
12681;SDS011;6405;59.208;18.216;2022-12-31T08:54:11;10.30;;;2.47;;
12681;SDS011;6405;59.208;18.216;2022-12-31T08:59:31;10.40;;;1.60;;
12681;SDS011;6405;59.208;18.216;2022-12-31T09:04:42;8.47;;;1.67;;
12681;SDS011;6405;59.208;18.216;2022-12-31T09:07:11;5.30;;;2.20;;
12681;SDS011;6405;59.208;18.216;2022-12-31T09:12:17;10.07;;;2.20;;
12681;SDS011;6405;59.208;18.216;2022-12-31T09:15:00;12.57;;;2.00;;
12681;SDS011;6405;59.208;18.216;2022-12-31T09:17:45;6.97;;;1.77;;
12681;SDS011;6405;59.208;18.216;2022-12-31T09:20:23;7.97;;;1.93;;
12681;SDS011;6405;59.208;18.216;2022-12-31T09:23:00;11.93;;;1.90;;
12681;SDS011;6405;59.208;18.216;2022-12-31T09:25:27;10.63;;;2.30;;
12681;SDS011;6405;59.208;18.216;2022-12-31T09:28:12;5.80;;;1.73;;
12681;SDS011;6405;59.208;18.216;2022-12-31T09:30:59;18.97;;;2.47;;
12681;SDS011;6405;59.208;18.216;2022-12-31T09:36:29;10.40;;;2.13;;
12681;SDS011;6405;59.208;18.216;2022-12-31T09:39:09;13.87;;;2.90;;
12681;SDS011;6405;59.208;18.216;2022-12-31T09:48:00;6.93;;;2.20;;
12681;SDS011;6405;59.208;18.216;2022-12-31T09:51:07;13.93;;;2.60;;
12681;SDS011;6405;59.208;18.216;2022-12-31T09:59:45;10.47;;;2.60;;
12681;SDS011;6405;59.208;18.216;2022-12-31T10:10:29;10.07;;;2.30;;
12681;SDS011;6405;59.208;18.216;2022-12-31T10:35:49;9.27;;;2.00;;
12681;SDS011;6405;59.208;18.216;2022-12-31T10:38:25;12.23;;;2.37;;
12681;SDS011;6405;59.208;18.216;2022-12-31T10:51:50;10.43;;;2.23;;
12681;SDS011;6405;59.208;18.216;2022-12-31T11:06:08;8.47;;;2.00;;
12681;SDS011;6405;59.208;18.216;2022-12-31T11:12:30;9.63;;;2.87;;
12681;SDS011;6405;59.208;18.216;2022-12-31T11:17:52;10.70;;;2.73;;
12681;SDS011;6405;59.208;18.216;2022-12-31T11:20:51;12.20;;;2.70;;
12681;SDS011;6405;59.208;18.216;2022-12-31T11:27:05;7.93;;;2.20;;
12681;SDS011;6405;59.208;18.216;2022-12-31T11:38:21;15.67;;;3.57;;
12681;SDS011;6405;59.208;18.216;2022-12-31T11:40:59;15.67;;;2.67;;
12681;SDS011;6405;59.208;18.216;2022-12-31T11:43:34;8.77;;;1.90;;
12681;SDS011;6405;59.208;18.216;2022-12-31T11:46:12;14.63;;;2.40;;
12681;SDS011;6405;59.208;18.216;2022-12-31T11:51:37;10.30;;;3.00;;
12681;SDS011;6405;59.208;18.216;2022-12-31T11:54:48;12.33;;;2.67;;
12681;SDS011;6405;59.208;18.216;2022-12-31T11:57:24;13.10;;;2.73;;
12681;SDS011;6405;59.208;18.216;2022-12-31T12:00:05;18.53;;;3.47;;
12681;SDS011;6405;59.208;18.216;2022-12-31T12:02:42;14.10;;;3.50;;
12681;SDS011;6405;59.208;18.216;2022-12-31T12:05:14;6.90;;;2.20;;
12681;SDS011;6405;59.208;18.216;2022-12-31T12:07:43;9.63;;;1.97;;
12681;SDS011;6405;59.208;18.216;2022-12-31T12:10:26;10.20;;;2.73;;
12681;SDS011;6405;59.208;18.216;2022-12-31T12:13:18;12.13;;;2.27;;
12681;SDS011;6405;59.208;18.216;2022-12-31T12:15:49;11.23;;;2.83;;
12681;SDS011;6405;59.208;18.216;2022-12-31T12:18:24;13.87;;;3.10;;
12681;SDS011;6405;59.208;18.216;2022-12-31T12:23:38;11.23;;;2.37;;
12681;SDS011;6405;59.208;18.216;2022-12-31T12:26:06;12.10;;;2.53;;
12681;SDS011;6405;59.208;18.216;2022-12-31T12:28:41;9.07;;;2.00;;
12681;SDS011;6405;59.208;18.216;2022-12-31T12:31:18;6.90;;;2.20;;
12681;SDS011;6405;59.208;18.216;2022-12-31T12:33:47;8.90;;;2.30;;
12681;SDS011;6405;59.208;18.216;2022-12-31T12:36:17;14.70;;;2.80;;
12681;SDS011;6405;59.208;18.216;2022-12-31T12:38:46;12.30;;;2.70;;
12681;SDS011;6405;59.208;18.216;2022-12-31T12:41:18;14.93;;;3.30;;
12681;SDS011;6405;59.208;18.216;2022-12-31T12:43:48;18.27;;;3.57;;
12681;SDS011;6405;59.208;18.216;2022-12-31T12:46:25;11.40;;;2.80;;
12681;SDS011;6405;59.208;18.216;2022-12-31T12:48:56;9.93;;;2.43;;
12681;SDS011;6405;59.208;18.216;2022-12-31T12:57:33;12.87;;;2.60;;
12681;SDS011;6405;59.208;18.216;2022-12-31T13:00:19;10.57;;;2.17;;
12681;SDS011;6405;59.208;18.216;2022-12-31T13:02:57;13.17;;;3.07;;
12681;SDS011;6405;59.208;18.216;2022-12-31T13:19:18;11.33;;;3.33;;
12681;SDS011;6405;59.208;18.216;2022-12-31T13:22:43;11.97;;;2.30;;
12681;SDS011;6405;59.208;18.216;2022-12-31T13:25:02;11.93;;;2.30;;
12681;SDS011;6405;59.208;18.216;2022-12-31T13:27:52;10.43;;;2.57;;
12681;SDS011;6405;59.208;18.216;2022-12-31T13:30:25;9.67;;;2.53;;
12681;SDS011;6405;59.208;18.216;2022-12-31T13:35:28;12.80;;;3.40;;
12681;SDS011;6405;59.208;18.216;2022-12-31T13:38:03;11.13;;;2.60;;
12681;SDS011;6405;59.208;18.216;2022-12-31T13:46:24;8.60;;;2.40;;
12681;SDS011;6405;59.208;18.216;2022-12-31T13:49:15;10.37;;;2.97;;
12681;SDS011;6405;59.208;18.216;2022-12-31T13:51:56;13.00;;;2.80;;
12681;SDS011;6405;59.208;18.216;2022-12-31T13:54:40;11.13;;;2.50;;
12681;SDS011;6405;59.208;18.216;2022-12-31T13:57:17;11.83;;;2.73;;
12681;SDS011;6405;59.208;18.216;2022-12-31T13:59:56;12.57;;;2.23;;
12681;SDS011;6405;59.208;18.216;2022-12-31T14:02:43;15.13;;;2.80;;
12681;SDS011;6405;59.208;18.216;2022-12-31T14:08:03;15.53;;;3.13;;
12681;SDS011;6405;59.208;18.216;2022-12-31T14:19:01;8.93;;;2.20;;
12681;SDS011;6405;59.208;18.216;2022-12-31T14:21:41;13.50;;;2.80;;
12681;SDS011;6405;59.208;18.216;2022-12-31T14:30:01;9.63;;;2.40;;
12681;SDS011;6405;59.208;18.216;2022-12-31T14:41:12;11.17;;;2.00;;
12681;SDS011;6405;59.208;18.216;2022-12-31T14:47:26;12.23;;;3.20;;
12681;SDS011;6405;59.208;18.216;2022-12-31T14:52:32;9.33;;;2.70;;
12681;SDS011;6405;59.208;18.216;2022-12-31T14:57:43;10.27;;;2.37;;
12681;SDS011;6405;59.208;18.216;2022-12-31T15:02:59;10.00;;;2.20;;
12681;SDS011;6405;59.208;18.216;2022-12-31T15:05:29;17.80;;;3.13;;
12681;SDS011;6405;59.208;18.216;2022-12-31T15:19:01;9.60;;;2.33;;
12681;SDS011;6405;59.208;18.216;2022-12-31T15:22:08;10.53;;;2.77;;
12681;SDS011;6405;59.208;18.216;2022-12-31T15:24:45;7.13;;;2.17;;
12681;SDS011;6405;59.208;18.216;2022-12-31T15:29:59;8.20;;;2.63;;
12681;SDS011;6405;59.208;18.216;2022-12-31T15:32:30;6.17;;;2.20;;
12681;SDS011;6405;59.208;18.216;2022-12-31T15:38:00;7.93;;;2.20;;
12681;SDS011;6405;59.208;18.216;2022-12-31T15:40:29;9.30;;;2.83;;
12681;SDS011;6405;59.208;18.216;2022-12-31T15:45:30;11.30;;;2.60;;
12681;SDS011;6405;59.208;18.216;2022-12-31T15:48:01;9.37;;;2.30;;
12681;SDS011;6405;59.208;18.216;2022-12-31T15:50:32;12.83;;;2.60;;
12681;SDS011;6405;59.208;18.216;2022-12-31T15:53:04;12.13;;;2.63;;
12681;SDS011;6405;59.208;18.216;2022-12-31T15:55:37;9.33;;;2.57;;
12681;SDS011;6405;59.208;18.216;2022-12-31T15:58:11;10.93;;;3.03;;
12681;SDS011;6405;59.208;18.216;2022-12-31T16:01:01;10.83;;;3.03;;
12681;SDS011;6405;59.208;18.216;2022-12-31T16:03:32;6.60;;;2.53;;
12681;SDS011;6405;59.208;18.216;2022-12-31T16:05:59;9.47;;;2.77;;
12681;SDS011;6405;59.208;18.216;2022-12-31T16:08:29;11.20;;;2.20;;
12681;SDS011;6405;59.208;18.216;2022-12-31T16:11:02;11.97;;;3.47;;
12681;SDS011;6405;59.208;18.216;2022-12-31T16:13:33;10.03;;;2.70;;
12681;SDS011;6405;59.208;18.216;2022-12-31T16:16:05;12.10;;;2.50;;
12681;SDS011;6405;59.208;18.216;2022-12-31T16:18:44;9.77;;;2.77;;
12681;SDS011;6405;59.208;18.216;2022-12-31T16:24:03;13.97;;;2.63;;
12681;SDS011;6405;59.208;18.216;2022-12-31T16:26:53;10.70;;;3.13;;
12681;SDS011;6405;59.208;18.216;2022-12-31T16:29:20;11.30;;;2.77;;
12681;SDS011;6405;59.208;18.216;2022-12-31T16:31:52;9.47;;;2.67;;
12681;SDS011;6405;59.208;18.216;2022-12-31T16:34:20;8.90;;;2.43;;
12681;SDS011;6405;59.208;18.216;2022-12-31T16:37:03;9.27;;;2.53;;
12681;SDS011;6405;59.208;18.216;2022-12-31T16:39:32;9.13;;;2.63;;
12681;SDS011;6405;59.208;18.216;2022-12-31T16:42:33;8.53;;;2.50;;
12681;SDS011;6405;59.208;18.216;2022-12-31T16:44:53;16.33;;;4.07;;
12681;SDS011;6405;59.208;18.216;2022-12-31T16:47:30;8.40;;;2.47;;
12681;SDS011;6405;59.208;18.216;2022-12-31T16:50:03;8.40;;;2.97;;
12681;SDS011;6405;59.208;18.216;2022-12-31T16:52:35;5.70;;;2.10;;
12681;SDS011;6405;59.208;18.216;2022-12-31T16:55:06;11.90;;;2.40;;
12681;SDS011;6405;59.208;18.216;2022-12-31T16:57:33;9.27;;;2.37;;
12681;SDS011;6405;59.208;18.216;2022-12-31T17:00:01;14.20;;;3.30;;
12681;SDS011;6405;59.208;18.216;2022-12-31T17:02:38;12.10;;;2.57;;
12681;SDS011;6405;59.208;18.216;2022-12-31T17:05:22;11.30;;;2.63;;
12681;SDS011;6405;59.208;18.216;2022-12-31T17:07:50;8.90;;;2.30;;
12681;SDS011;6405;59.208;18.216;2022-12-31T17:10:24;16.77;;;2.87;;
12681;SDS011;6405;59.208;18.216;2022-12-31T17:12:59;11.80;;;2.67;;
12681;SDS011;6405;59.208;18.216;2022-12-31T17:15:36;8.10;;;2.70;;
12681;SDS011;6405;59.208;18.216;2022-12-31T17:18:05;11.53;;;2.37;;
12681;SDS011;6405;59.208;18.216;2022-12-31T17:20:33;12.23;;;2.70;;
12681;SDS011;6405;59.208;18.216;2022-12-31T17:23:01;7.90;;;2.70;;
12681;SDS011;6405;59.208;18.216;2022-12-31T17:25:32;11.43;;;3.13;;
12681;SDS011;6405;59.208;18.216;2022-12-31T17:30:48;13.90;;;3.67;;
12681;SDS011;6405;59.208;18.216;2022-12-31T17:35:46;12.80;;;2.97;;
12681;SDS011;6405;59.208;18.216;2022-12-31T17:41:31;10.60;;;2.70;;
12681;SDS011;6405;59.208;18.216;2022-12-31T17:43:33;10.63;;;2.83;;
12681;SDS011;6405;59.208;18.216;2022-12-31T17:46:01;9.30;;;2.50;;
12681;SDS011;6405;59.208;18.216;2022-12-31T17:48:33;17.33;;;3.23;;
12681;SDS011;6405;59.208;18.216;2022-12-31T17:51:02;10.63;;;2.70;;
12681;SDS011;6405;59.208;18.216;2022-12-31T17:53:29;12.47;;;2.93;;
12681;SDS011;6405;59.208;18.216;2022-12-31T17:55:55;12.30;;;2.80;;
12681;SDS011;6405;59.208;18.216;2022-12-31T18:01:00;11.03;;;2.57;;
12681;SDS011;6405;59.208;18.216;2022-12-31T18:03:30;15.90;;;3.33;;
12681;SDS011;6405;59.208;18.216;2022-12-31T18:05:56;14.93;;;2.90;;
12681;SDS011;6405;59.208;18.216;2022-12-31T18:08:23;7.13;;;2.53;;
12681;SDS011;6405;59.208;18.216;2022-12-31T18:10:50;7.23;;;2.20;;
12681;SDS011;6405;59.208;18.216;2022-12-31T18:13:19;10.67;;;2.67;;
12681;SDS011;6405;59.208;18.216;2022-12-31T18:15:50;14.00;;;2.93;;
12681;SDS011;6405;59.208;18.216;2022-12-31T18:18:20;6.23;;;2.00;;
12681;SDS011;6405;59.208;18.216;2022-12-31T18:20:53;12.83;;;2.60;;
12681;SDS011;6405;59.208;18.216;2022-12-31T18:23:30;13.93;;;3.03;;
12681;SDS011;6405;59.208;18.216;2022-12-31T18:26:00;13.80;;;3.33;;
12681;SDS011;6405;59.208;18.216;2022-12-31T18:28:25;11.83;;;2.43;;
12681;SDS011;6405;59.208;18.216;2022-12-31T18:30:54;6.93;;;2.37;;
12681;SDS011;6405;59.208;18.216;2022-12-31T18:33:20;15.60;;;2.50;;
12681;SDS011;6405;59.208;18.216;2022-12-31T18:35:48;11.00;;;2.60;;
12681;SDS011;6405;59.208;18.216;2022-12-31T18:38:17;11.90;;;3.27;;
12681;SDS011;6405;59.208;18.216;2022-12-31T18:40:51;17.13;;;2.90;;
12681;SDS011;6405;59.208;18.216;2022-12-31T18:43:20;19.50;;;3.00;;
12681;SDS011;6405;59.208;18.216;2022-12-31T18:45:48;8.53;;;2.50;;
12681;SDS011;6405;59.208;18.216;2022-12-31T18:48:16;16.03;;;2.57;;
12681;SDS011;6405;59.208;18.216;2022-12-31T18:50:44;10.63;;;3.10;;
12681;SDS011;6405;59.208;18.216;2022-12-31T18:53:22;7.70;;;1.80;;
12681;SDS011;6405;59.208;18.216;2022-12-31T18:55:50;11.23;;;2.43;;
12681;SDS011;6405;59.208;18.216;2022-12-31T18:58:19;11.73;;;2.90;;
12681;SDS011;6405;59.208;18.216;2022-12-31T19:00:47;9.27;;;2.37;;
12681;SDS011;6405;59.208;18.216;2022-12-31T19:03:16;13.53;;;2.70;;
12681;SDS011;6405;59.208;18.216;2022-12-31T19:05:49;12.80;;;2.40;;
12681;SDS011;6405;59.208;18.216;2022-12-31T19:08:17;15.13;;;2.93;;
12681;SDS011;6405;59.208;18.216;2022-12-31T19:10:47;12.67;;;3.03;;
12681;SDS011;6405;59.208;18.216;2022-12-31T19:13:15;12.87;;;2.77;;
12681;SDS011;6405;59.208;18.216;2022-12-31T19:15:43;5.83;;;1.83;;
12681;SDS011;6405;59.208;18.216;2022-12-31T19:18:14;13.23;;;2.40;;
12681;SDS011;6405;59.208;18.216;2022-12-31T19:20:42;16.17;;;3.53;;
12681;SDS011;6405;59.208;18.216;2022-12-31T19:23:17;8.93;;;1.97;;
12681;SDS011;6405;59.208;18.216;2022-12-31T19:25:47;11.90;;;2.67;;
12681;SDS011;6405;59.208;18.216;2022-12-31T19:28:16;13.53;;;1.83;;
12681;SDS011;6405;59.208;18.216;2022-12-31T19:30:45;8.43;;;2.33;;
12681;SDS011;6405;59.208;18.216;2022-12-31T19:33:13;9.37;;;2.07;;
12681;SDS011;6405;59.208;18.216;2022-12-31T19:35:41;9.47;;;1.83;;
12681;SDS011;6405;59.208;18.216;2022-12-31T19:38:14;12.47;;;2.03;;
12681;SDS011;6405;59.208;18.216;2022-12-31T19:40:41;10.20;;;2.73;;
12681;SDS011;6405;59.208;18.216;2022-12-31T19:43:11;8.60;;;2.00;;
12681;SDS011;6405;59.208;18.216;2022-12-31T19:45:40;9.47;;;2.20;;